createdAt,value
2022-09-22T00:01:49.602Z,3.85
2022-09-22T00:06:53.833Z,3.20
2022-09-22T00:11:56.133Z,3.33
2022-09-22T00:17:01.878Z,4.15
2022-09-22T00:22:06.612Z,3.53
2022-09-22T00:27:09.102Z,3.03
2022-09-22T00:32:11.766Z,2.70
2022-09-22T00:37:15.634Z,3.05
2022-09-22T00:42:17.976Z,3.05
2022-09-22T00:47:31.875Z,2.38
2022-09-22T00:52:40.859Z,1.88
2022-09-22T00:57:44.800Z,2.85
2022-09-22T01:02:50.734Z,2.70
2022-09-22T01:07:54.689Z,2.40
2022-09-22T01:13:07.454Z,2.35
2022-09-22T01:18:20.046Z,2.10
2022-09-22T01:23:48.947Z,2.30
2022-09-22T01:29:15.023Z,1.80
2022-09-22T01:34:27.075Z,1.90
2022-09-22T01:39:35.334Z,2.17
2022-09-22T01:44:43.998Z,1.92
2022-09-22T01:49:52.213Z,2.10
2022-09-22T01:54:58.683Z,2.33
2022-09-22T02:00:06.236Z,2.95
2022-09-22T02:05:15.738Z,3.00
2022-09-22T02:10:23.524Z,3.20
2022-09-22T02:15:26.194Z,3.58
2022-09-22T02:20:30.651Z,3.33
2022-09-22T02:25:33.843Z,3.10
2022-09-22T02:30:36.697Z,2.40
2022-09-22T02:35:43.556Z,2.83
2022-09-22T02:40:51.743Z,3.33
2022-09-22T02:46:00.385Z,2.30
2022-09-22T02:51:05.035Z,2.20
2022-09-22T02:56:07.694Z,2.00
2022-09-22T03:01:10.036Z,2.17
2022-09-22T03:06:13.857Z,2.50
2022-09-22T03:11:16.231Z,2.67
2022-09-22T03:16:18.540Z,3.45
2022-09-22T03:21:22.528Z,2.63
2022-09-22T03:26:24.755Z,3.03
2022-09-22T03:31:27.095Z,3.35
2022-09-22T03:36:30.856Z,2.67
2022-09-22T03:41:33.159Z,3.20
2022-09-22T03:46:35.555Z,3.80
2022-09-22T03:51:41.355Z,3.53
2022-09-22T03:56:45.837Z,4.20
2022-09-22T04:01:48.750Z,4.22
2022-09-22T04:06:52.943Z,3.67
2022-09-22T04:11:55.875Z,4.10
2022-09-22T04:16:58.451Z,3.33
2022-09-22T04:22:02.532Z,4.05
2022-09-22T04:27:21.243Z,3.83
2022-09-22T04:32:23.940Z,3.53
2022-09-22T04:37:27.773Z,3.50
2022-09-22T04:42:30.159Z,3.28
2022-09-22T04:47:32.539Z,3.72
2022-09-22T04:52:36.303Z,4.30
2022-09-22T04:57:38.912Z,4.13
2022-09-22T05:02:41.427Z,3.60
2022-09-22T05:07:47.713Z,3.85
2022-09-22T05:12:51.079Z,3.15
2022-09-22T05:17:55.151Z,3.70
2022-09-22T05:22:59.023Z,3.50
2022-09-22T05:28:01.735Z,3.35
2022-09-22T05:33:04.789Z,3.10
2022-09-22T05:38:08.967Z,3.50
2022-09-22T05:43:11.282Z,2.80
2022-09-22T05:48:13.663Z,3.42
2022-09-22T05:53:17.661Z,2.90
2022-09-22T05:58:20.871Z,2.30
2022-09-22T06:03:23.833Z,2.15
2022-09-22T06:08:27.810Z,2.90
2022-09-22T06:13:30.114Z,3.10
2022-09-22T06:18:33.277Z,4.20
2022-09-22T06:23:42.014Z,3.00
2022-09-22T06:28:45.661Z,3.10
2022-09-22T06:33:47.932Z,2.75
2022-09-22T06:38:52.070Z,2.92
2022-09-22T06:43:55.127Z,8.07
2022-09-22T06:48:57.795Z,2.42
2022-09-22T06:54:03.131Z,2.75
2022-09-22T06:59:10.212Z,2.67
2022-09-22T07:04:13.628Z,2.00
2022-09-22T07:09:17.482Z,3.85
2022-09-22T07:14:20.683Z,4.43
2022-09-22T07:19:23.276Z,3.42
2022-09-22T07:24:27.754Z,4.32
2022-09-22T07:29:32.572Z,2.65
2022-09-22T07:34:35.217Z,2.47
2022-09-22T07:39:39.426Z,4.50
2022-09-22T07:44:44.442Z,3.63
2022-09-22T07:49:47.695Z,2.20
2022-09-22T07:54:51.666Z,2.33
2022-09-22T07:59:54.044Z,2.25
2022-09-22T08:04:56.607Z,2.15
2022-09-22T08:10:01.864Z,2.28
2022-09-22T08:15:05.164Z,2.15
2022-09-22T08:20:09.584Z,2.20
2022-09-22T08:25:13.986Z,2.03
2022-09-22T08:30:18.069Z,2.00
2022-09-22T08:35:20.555Z,4.03
2022-09-22T08:40:25.106Z,1.75
2022-09-22T08:45:34.140Z,1.73
2022-09-22T08:50:44.079Z,1.80
2022-09-22T08:55:55.808Z,1.80
2022-09-22T09:01:07.896Z,1.60
2022-09-22T09:06:13.581Z,1.75
2022-09-22T09:11:31.567Z,1.30
2022-09-22T09:16:46.975Z,1.38
2022-09-22T09:21:55.435Z,1.80
2022-09-22T09:27:04.026Z,1.67
2022-09-22T09:32:13.456Z,1.38
2022-09-22T09:37:17.643Z,1.25
2022-09-22T09:42:25.576Z,1.50
2022-09-22T09:47:46.879Z,1.50
2022-09-22T09:52:49.470Z,1.40
2022-09-22T09:58:08.920Z,1.38
2022-09-22T10:03:18.860Z,1.45
2022-09-22T10:08:22.298Z,1.45
2022-09-22T10:13:29.949Z,1.42
2022-09-22T10:18:37.220Z,1.13
2022-09-22T10:23:39.843Z,1.83
2022-09-22T10:28:45.000Z,1.98
2022-09-22T10:33:56.813Z,1.58
2022-09-22T10:39:00.005Z,1.45
2022-09-22T10:49:55.036Z,1.40
2022-09-22T10:55:14.879Z,1.48
2022-09-22T11:00:20.820Z,1.73
2022-09-22T11:05:34.816Z,2.87
2022-09-22T11:10:43.174Z,2.55
2022-09-22T11:16:06.682Z,3.25
2022-09-22T11:21:20.905Z,1.60
2022-09-22T11:26:49.096Z,1.77
2022-09-22T11:32:03.407Z,1.52
2022-09-22T11:37:18.771Z,1.55
2022-09-22T11:42:28.314Z,1.60
2022-09-22T11:47:56.916Z,2.30
2022-09-22T11:53:25.078Z,2.00
2022-09-22T11:58:29.688Z,2.30
2022-09-22T12:03:39.957Z,2.95
2022-09-22T12:08:48.698Z,2.15
2022-09-22T12:13:53.779Z,2.28
2022-09-22T12:19:03.350Z,2.40
2022-09-22T12:24:10.625Z,1.92
2022-09-22T12:29:25.944Z,2.20
2022-09-22T12:34:34.313Z,2.60
2022-09-22T12:39:41.414Z,2.50
2022-09-22T12:44:49.679Z,1.88
2022-09-22T12:49:58.089Z,1.80
2022-09-22T12:55:18.671Z,2.00
2022-09-22T13:00:27.822Z,2.80
2022-09-22T13:05:35.817Z,2.13
2022-09-22T13:10:53.960Z,2.10
2022-09-22T13:15:58.663Z,2.38
2022-09-22T13:21:18.388Z,2.50
2022-09-22T13:26:23.493Z,2.60
2022-09-22T13:31:27.011Z,2.58
2022-09-22T13:36:31.139Z,2.60
2022-09-22T13:41:45.579Z,2.00
2022-09-22T13:46:50.691Z,2.65
2022-09-22T13:51:59.016Z,1.95
2022-09-22T13:57:03.960Z,2.13
2022-09-22T14:02:12.698Z,2.05
2022-09-22T14:07:18.665Z,2.20
2022-09-22T14:12:21.408Z,2.05
2022-09-22T14:17:27.028Z,2.60
2022-09-22T14:22:33.627Z,1.98
2022-09-22T14:27:50.592Z,2.50
2022-09-22T14:38:06.357Z,1.75
2022-09-22T14:43:25.029Z,2.70
2022-09-22T14:48:33.920Z,2.40
2022-09-22T14:53:44.009Z,2.83
2022-09-22T14:58:52.603Z,2.30
2022-09-22T15:04:00.471Z,2.35
2022-09-22T15:09:05.391Z,1.92
2022-09-22T15:14:36.554Z,1.67
2022-09-22T15:19:39.874Z,1.48
2022-09-22T15:30:52.681Z,1.90
2022-09-22T15:36:16.266Z,2.08
2022-09-22T15:41:19.640Z,1.80
2022-09-22T15:46:31.956Z,1.42
2022-09-22T15:51:38.273Z,1.48
2022-09-22T15:56:42.112Z,1.67
2022-09-22T16:01:47.014Z,1.63
2022-09-22T16:06:55.006Z,1.50
2022-09-22T16:11:57.784Z,1.40
2022-09-22T16:17:02.754Z,1.23
2022-09-22T16:22:05.694Z,1.13
2022-09-22T16:27:08.394Z,1.67
2022-09-22T16:32:12.722Z,1.60
2022-09-22T16:37:16.845Z,1.30
2022-09-22T16:42:23.516Z,1.55
2022-09-22T16:47:30.641Z,1.17
2022-09-22T16:52:34.353Z,1.30
2022-09-22T16:57:37.144Z,1.67
2022-09-22T17:02:41.540Z,1.10
2022-09-22T17:07:44.073Z,1.45
2022-09-22T17:12:46.634Z,1.60
2022-09-22T17:17:50.547Z,1.30
2022-09-22T17:22:52.995Z,1.35
2022-09-22T17:27:56.088Z,1.02
2022-09-22T17:33:00.356Z,1.20
2022-09-22T17:38:03.386Z,1.17
2022-09-22T17:43:06.119Z,1.40
2022-09-22T17:48:10.153Z,1.50
2022-09-22T17:53:12.534Z,1.60
2022-09-22T17:58:15.277Z,1.77
2022-09-22T18:03:19.178Z,2.17
2022-09-22T18:08:21.708Z,1.70
2022-09-22T18:13:24.042Z,1.55
2022-09-22T18:18:27.839Z,1.60
2022-09-22T18:23:30.549Z,1.42
2022-09-22T18:28:34.235Z,8.48
2022-09-22T18:33:38.246Z,3.65
2022-09-22T18:38:40.746Z,2.15
2022-09-22T18:43:43.258Z,2.10
2022-09-22T18:48:50.412Z,2.00
2022-09-22T18:53:52.764Z,2.28
2022-09-22T18:58:55.799Z,2.90
2022-09-22T19:04:00.011Z,2.58
2022-09-22T19:09:02.714Z,2.70
2022-09-22T19:14:05.323Z,2.42
2022-09-22T19:19:09.201Z,2.05
2022-09-22T19:24:11.702Z,2.45
2022-09-22T19:29:14.299Z,2.40
2022-09-22T19:34:18.388Z,2.65
2022-09-22T19:39:20.813Z,3.03
2022-09-22T19:44:23.696Z,2.80
2022-09-22T19:49:27.713Z,2.75
2022-09-22T19:54:30.108Z,2.92
2022-09-22T19:59:32.829Z,3.30
2022-09-22T20:04:36.724Z,3.85
2022-09-22T20:09:40.058Z,3.47
2022-09-22T20:14:42.527Z,3.38
2022-09-22T20:19:46.932Z,3.13
2022-09-22T20:24:50.616Z,3.67
2022-09-22T20:29:56.990Z,3.63
2022-09-22T20:35:01.731Z,4.37
2022-09-22T20:40:07.416Z,4.30
2022-09-22T20:45:11.774Z,5.35
2022-09-22T20:50:16.293Z,5.35
2022-09-22T20:55:19.288Z,5.45
2022-09-22T21:00:21.635Z,4.70
2022-09-22T21:05:25.618Z,4.97
2022-09-22T21:10:28.138Z,4.68
2022-09-22T21:15:30.724Z,5.25
2022-09-22T21:20:34.707Z,4.28
2022-09-22T21:25:37.164Z,4.32
2022-09-22T21:30:39.668Z,4.20
2022-09-22T21:35:43.855Z,3.58
2022-09-22T21:40:46.694Z,4.05
2022-09-22T21:45:58.242Z,4.43
2022-09-22T21:51:07.993Z,4.43
2022-09-22T21:56:12.309Z,5.00
2022-09-22T22:01:16.693Z,4.47
2022-09-22T22:06:22.745Z,5.70
2022-09-22T22:11:28.865Z,6.47
2022-09-22T22:16:32.934Z,5.93
2022-09-22T22:21:37.720Z,5.75
2022-09-22T22:26:40.205Z,6.32
2022-09-22T22:31:42.591Z,4.88
2022-09-22T22:36:47.251Z,4.93
2022-09-22T22:41:49.606Z,5.35
2022-09-22T22:46:51.909Z,5.93
2022-09-22T22:51:55.741Z,5.47
2022-09-22T22:56:58.081Z,4.60
2022-09-22T23:02:00.479Z,4.93
2022-09-22T23:07:04.428Z,4.75
2022-09-22T23:12:07.142Z,5.20
2022-09-22T23:17:09.505Z,4.63
2022-09-22T23:22:13.358Z,5.63
2022-09-22T23:27:16.014Z,5.10
2022-09-22T23:32:18.907Z,5.28
2022-09-22T23:37:23.016Z,5.80
2022-09-22T23:42:25.786Z,5.35
2022-09-22T23:47:28.234Z,5.65
2022-09-22T23:52:32.452Z,6.00
2022-09-22T23:57:34.821Z,6.47
